La rose des vents
Donnes mto: Semaine 17/03/08 - 23/03/08 (S 12)
Date Horaire Temp. E. Hum. E. P.atmo. Pluie Vent 1mn Direction Ensoleilleme Ev.Tr. Solaire P. de rose Temp au vent Rafales
17/03/2008 00:00 13,1 C 43 % 1004,5 hPa 0,0 l/m 17,8 km/h (3 Bft) O 0,00 h 0,127 mm 0 W/m 0,6 C 13,1 C 23,9 km/h (4 Bft)
17/03/2008 01:00 12,1 C 50 % 1004,2 hPa 0,0 l/m 25,9 km/h (4 Bft) SO 0,00 h 0,127 mm 0 W/m 2,0 C 12,1 C 33,5 km/h (5 Bft)
17/03/2008 02:00 12,5 C 47 % 1003,8 hPa 0,0 l/m 19,5 km/h (3 Bft) O-SO 0,00 h 0,152 mm 0 W/m 1,6 C 12,5 C 27,2 km/h (4 Bft)
17/03/2008 03:00 12,6 C 47 % 1003,1 hPa 0,0 l/m 20,0 km/h (4 Bft) O 0,00 h 0,127 mm 0 W/m 1,5 C 12,6 C 28,5 km/h (4 Bft)
17/03/2008 04:00 12,0 C 48 % 1002,8 hPa 0,0 l/m 16,4 km/h (3 Bft) O-SO 0,00 h 0,127 mm 0 W/m 1,4 C 12,0 C 23,5 km/h (4 Bft)
17/03/2008 05:00 10,9 C 56 % 1003,0 hPa 0,0 l/m 5,2 km/h (1 Bft) SE 0,00 h 0,102 mm 0 W/m 2,4 C 10,9 C 7,8 km/h (2 Bft)
17/03/2008 06:00 10,0 C 71 % 1003,2 hPa 0,0 l/m 7,4 km/h (2 Bft) E 0,02 h 0,051 mm 9 W/m 5,0 C 9,4 C 11,3 km/h (2 Bft)
17/03/2008 07:00 9,9 C 80 % 1003,7 hPa 0,0 l/m 2,2 km/h (1 Bft) N-NE 0,22 h 0,025 mm 59 W/m 6,7 C 9,9 C 4,1 km/h (1 Bft)
17/03/2008 08:00 12,7 C 78 % 1003,8 hPa 0,0 l/m 5,8 km/h (2 Bft) E 1,00 h 0,025 mm 277 W/m 8,9 C 12,7 C 9,1 km/h (2 Bft)
17/03/2008 09:00 14,9 C 69 % 1004,1 hPa 0,0 l/m 6,9 km/h (2 Bft) E-NE 1,00 h 0,152 mm 439 W/m 9,2 C 14,9 C 10,1 km/h (2 Bft)
17/03/2008 10:00 15,4 C 68 % 1004,2 hPa 0,0 l/m 10,2 km/h (2 Bft) E-NE 1,00 h 0,254 mm 581 W/m 9,4 C 15,4 C 14,7 km/h (3 Bft)
17/03/2008 11:00 15,8 C 67 % 1004,5 hPa 0,0 l/m 11,5 km/h (2 Bft) E-NE 1,00 h 0,356 mm 671 W/m 9,6 C 15,8 C 17,1 km/h (3 Bft)
17/03/2008 12:00 16,3 C 67 % 1004,3 hPa 0,0 l/m 12,3 km/h (3 Bft) E-NE 1,00 h 0,406 mm 703 W/m 10,1 C 16,3 C 17,7 km/h (3 Bft)
17/03/2008 13:00 15,6 C 66 % 1004,1 hPa 0,0 l/m 9,1 km/h (2 Bft) E 1,00 h 0,432 mm 681 W/m 9,4 C 15,6 C 15,7 km/h (3 Bft)
17/03/2008 14:00 15,4 C 69 % 1003,8 hPa 0,0 l/m 6,4 km/h (2 Bft) E 1,00 h 0,406 mm 602 W/m 9,7 C 15,4 C 11,8 km/h (2 Bft)
17/03/2008 15:00 14,9 C 71 % 1003,5 hPa 0,0 l/m 6,2 km/h (2 Bft) E 1,00 h 0,356 mm 498 W/m 9,7 C 14,9 C 10,2 km/h (2 Bft)
17/03/2008 16:00 14,3 C 75 % 1003,2 hPa 0,0 l/m 3,5 km/h (1 Bft) E-SE 0,73 h 0,279 mm 256 W/m 10,0 C 14,3 C 7,1 km/h (2 Bft)
17/03/2008 17:00 13,6 C 80 % 1003,3 hPa 0,0 l/m 2,8 km/h (1 Bft) E 0,68 h 0,152 mm 132 W/m 10,2 C 13,6 C 5,6 km/h (1 Bft)
17/03/2008 18:00 11,9 C 87 % 1003,6 hPa 0,0 l/m 1,0 km/h (0 Bft) E-SE 0,00 h 0,076 mm 15 W/m 9,7 C 11,9 C 2,5 km/h (1 Bft)
17/03/2008 19:00 11,1 C 89 % 1003,7 hPa 0,0 l/m 0,3 km/h (0 Bft) SE 0,00 h 0,000 mm 0 W/m 9,3 C 11,1 C 0,8 km/h (0 Bft)
17/03/2008 20:00 10,3 C 90 % 1003,8 hPa 0,0 l/m 0,0 km/h (0 Bft) N 0,00 h 0,000 mm 0 W/m 8,8 C 10,3 C 0,0 km/h (0 Bft)
17/03/2008 21:00 10,4 C 91 % 1003,5 hPa 0,0 l/m 0,2 km/h (0 Bft) SE 0,00 h 0,000 mm 0 W/m 9,0 C 10,4 C 0,6 km/h (0 Bft)
17/03/2008 22:00 10,4 C 91 % 1003,1 hPa 0,0 l/m 0,4 km/h (0 Bft) SE 0,00 h 0,000 mm 0 W/m 9,0 C 10,4 C 0,7 km/h (0 Bft)
17/03/2008 23:00 10,5 C 92 % 1003,0 hPa 0,0 l/m 3,3 km/h (1 Bft) SO 0,00 h 0,000 mm 0 W/m 9,3 C 10,5 C 4,7 km/h (1 Bft)
18/03/2008 00:00 10,2 C 93 % 1002,4 hPa 0,0 l/m 2,8 km/h (1 Bft) SO 0,00 h 0,025 mm 0 W/m 9,1 C 10,2 C 4,1 km/h (1 Bft)
18/03/2008 01:00 10,1 C 93 % 1002,2 hPa 0,0 l/m 4,6 km/h (1 Bft) SO 0,00 h 0,000 mm 0 W/m 9,0 C 10,0 C 6,3 km/h (2 Bft)
18/03/2008 02:00 9,6 C 93 % 1001,7 hPa 0,0 l/m 4,2 km/h (1 Bft) O 0,00 h 0,025 mm 0 W/m 8,6 C 9,4 C 5,5 km/h (1 Bft)
18/03/2008 03:00 8,9 C 93 % 1000,8 hPa 0,0 l/m 3,8 km/h (1 Bft) O 0,00 h 0,000 mm 0 W/m 7,9 C 8,8 C 5,1 km/h (1 Bft)
18/03/2008 04:00 8,5 C 93 % 1000,6 hPa 0,0 l/m 2,2 km/h (1 Bft) O 0,00 h 0,000 mm 0 W/m 7,5 C 8,5 C 3,5 km/h (1 Bft)
18/03/2008 05:00 8,4 C 93 % 1000,3 hPa 0,0 l/m 1,7 km/h (1 Bft) O 0,00 h 0,000 mm 0 W/m 7,3 C 8,4 C 2,8 km/h (1 Bft)
18/03/2008 06:00 8,1 C 93 % 1000,2 hPa 0,0 l/m 2,6 km/h (1 Bft) O 0,00 h 0,000 mm 11 W/m 7,1 C 8,0 C 3,5 km/h (1 Bft)
18/03/2008 07:00 8,1 C 92 % 1000,3 hPa 0,0 l/m 1,8 km/h (1 Bft) O 0,10 h 0,000 mm 62 W/m 6,9 C 8,1 C 3,2 km/h (1 Bft)
18/03/2008 08:00 10,4 C 86 % 1000,4 hPa 0,0 l/m 2,3 km/h (1 Bft) O 0,12 h 0,025 mm 161 W/m 8,2 C 10,4 C 4,3 km/h (1 Bft)
18/03/2008 09:00 12,8 C 79 % 1000,6 hPa 0,0 l/m 5,1 km/h (1 Bft) E-NE 0,82 h 0,076 mm 387 W/m 9,3 C 12,8 C 7,8 km/h (2 Bft)
18/03/2008 10:00 13,6 C 75 % 1000,9 hPa 0,0 l/m 6,7 km/h (2 Bft) E 0,65 h 0,203 mm 383 W/m 9,3 C 13,6 C 10,3 km/h (2 Bft)
18/03/2008 11:00 14,5 C 69 % 1001,1 hPa 0,0 l/m 7,4 km/h (2 Bft) E 0,92 h 0,229 mm 665 W/m 8,8 C 14,5 C 11,7 km/h (2 Bft)
18/03/2008 12:00 15,6 C 63 % 1001,1 hPa 0,0 l/m 7,8 km/h (2 Bft) E 1,00 h 0,381 mm 697 W/m 8,7 C 15,6 C 13,5 km/h (3 Bft)
18/03/2008 13:00 16,0 C 64 % 1001,0 hPa 0,0 l/m 11,0 km/h (2 Bft) E-NE 1,00 h 0,406 mm 659 W/m 9,1 C 16,0 C 16,2 km/h (3 Bft)
18/03/2008 14:00 16,1 C 62 % 1000,7 hPa 0,0 l/m 9,3 km/h (2 Bft) E-NE 1,00 h 0,406 mm 621 W/m 8,7 C 16,1 C 13,6 km/h (3 Bft)
18/03/2008 15:00 16,0 C 62 % 1000,6 hPa 0,0 l/m 9,1 km/h (2 Bft) E-NE 1,00 h 0,381 mm 482 W/m 8,7 C 16,0 C 13,3 km/h (3 Bft)
18/03/2008 16:00 15,1 C 61 % 1000,6 hPa 0,0 l/m 6,3 km/h (2 Bft) E 0,98 h 0,305 mm 322 W/m 7,6 C 15,1 C 9,8 km/h (2 Bft)
18/03/2008 17:00 14,3 C 63 % 1000,8 hPa 0,0 l/m 2,8 km/h (1 Bft) E-NE 0,97 h 0,203 mm 151 W/m 7,4 C 14,3 C 4,5 km/h (1 Bft)
18/03/2008 18:00 12,0 C 72 % 1001,5 hPa 0,0 l/m 0,8 km/h (0 Bft) E-NE 0,03 h 0,102 mm 19 W/m 7,1 C 12,0 C 2,0 km/h (1 Bft)
18/03/2008 19:00 10,0 C 78 % 1002,1 hPa 0,0 l/m 1,4 km/h (1 Bft) E-NE 0,00 h 0,025 mm 0 W/m 6,4 C 10,0 C 2,5 km/h (1 Bft)
18/03/2008 20:00 10,0 C 80 % 1002,8 hPa 0,0 l/m 1,3 km/h (1 Bft) E-NE 0,00 h 0,000 mm 0 W/m 6,7 C 10,0 C 2,5 km/h (1 Bft)
18/03/2008 21:00 10,2 C 82 % 1003,3 hPa 0,0 l/m 0,6 km/h (0 Bft) E-NE 0,00 h 0,025 mm 0 W/m 7,2 C 10,2 C 1,6 km/h (1 Bft)
18/03/2008 22:00 10,0 C 83 % 1003,6 hPa 0,0 l/m 1,6 km/h (1 Bft) E 0,00 h 0,025 mm 0 W/m 7,3 C 10,0 C 2,6 km/h (1 Bft)
18/03/2008 23:00 9,5 C 85 % 1004,0 hPa 0,0 l/m 1,9 km/h (1 Bft) NE 0,00 h 0,025 mm 0 W/m 7,2 C 9,5 C 3,7 km/h (1 Bft)
19/03/2008 00:00 9,0 C 87 % 1004,3 hPa 0,0 l/m 2,2 km/h (1 Bft) NE 0,00 h 0,025 mm 0 W/m 6,9 C 8,9 C 4,1 km/h (1 Bft)
19/03/2008 01:00 9,2 C 88 % 1004,8 hPa 0,0 l/m 1,8 km/h (1 Bft) N 0,00 h 0,025 mm 0 W/m 7,4 C 9,1 C 3,3 km/h (1 Bft)
19/03/2008 02:00 9,2 C 89 % 1004,7 hPa 0,0 l/m 2,1 km/h (1 Bft) N-NE 0,00 h 0,025 mm 0 W/m 7,5 C 9,2 C 3,8 km/h (1 Bft)
19/03/2008 03:00 9,4 C 90 % 1004,7 hPa 0,0 l/m 5,7 km/h (1 Bft) N-NE 0,00 h 0,025 mm 0 W/m 7,8 C 8,8 C 8,5 km/h (2 Bft)
19/03/2008 04:00 9,2 C 90 % 1004,8 hPa 0,0 l/m 5,0 km/h (1 Bft) N-NE 0,00 h 0,025 mm 0 W/m 7,7 C 8,9 C 7,8 km/h (2 Bft)
19/03/2008 05:00 9,4 C 90 % 1004,9 hPa 0,0 l/m 2,1 km/h (1 Bft) N 0,00 h 0,025 mm 0 W/m 7,8 C 9,4 C 4,1 km/h (1 Bft)
19/03/2008 06:00 9,6 C 90 % 1005,3 hPa 0,2 l/m 1,7 km/h (1 Bft) N-NE 0,00 h 0,025 mm 0 W/m 8,0 C 9,6 C 3,4 km/h (1 Bft)
19/03/2008 07:00 10,0 C 90 % 1005,7 hPa 0,0 l/m 1,1 km/h (1 Bft) O-SO 0,00 h 0,000 mm 22 W/m 8,4 C 10,0 C 1,9 km/h (1 Bft)
19/03/2008 08:00 9,7 C 90 % 1006,2 hPa 0,2 l/m 2,1 km/h (1 Bft) O-NO 0,00 h 0,025 mm 31 W/m 8,2 C 9,7 C 4,2 km/h (1 Bft)
19/03/2008 09:00 9,6 C 91 % 1006,6 hPa 0,2 l/m 2,2 km/h (1 Bft) N-NO 0,00 h 0,025 mm 93 W/m 8,3 C 9,6 C 4,4 km/h (1 Bft)
19/03/2008 10:00 11,1 C 87 % 1006,6 hPa 0,0 l/m 1,8 km/h (1 Bft) N 0,08 h 0,051 mm 274 W/m 9,0 C 11,1 C 3,6 km/h (1 Bft)
19/03/2008 11:00 12,1 C 73 % 1006,8 hPa 0,0 l/m 7,5 km/h (2 Bft) E 0,10 h 0,127 mm 278 W/m 7,3 C 12,1 C 13,6 km/h (3 Bft)
19/03/2008 12:00 12,4 C 71 % 1006,8 hPa 0,0 l/m 6,2 km/h (2 Bft) E 0,22 h 0,178 mm 323 W/m 7,4 C 12,4 C 11,0 km/h (2 Bft)
19/03/2008 13:00 11,9 C 72 % 1006,5 hPa 0,0 l/m 4,9 km/h (1 Bft) E 0,00 h 0,178 mm 181 W/m 7,0 C 11,9 C 8,0 km/h (2 Bft)
19/03/2008 14:00 11,8 C 73 % 1006,1 hPa 0,0 l/m 3,8 km/h (1 Bft) E 0,00 h 0,102 mm 177 W/m 7,1 C 11,8 C 6,2 km/h (2 Bft)
19/03/2008 15:00 11,3 C 76 % 1005,6 hPa 0,0 l/m 3,3 km/h (1 Bft) SE 0,00 h 0,102 mm 79 W/m 7,2 C 11,3 C 6,5 km/h (2 Bft)
19/03/2008 16:00 10,6 C 79 % 1005,2 hPa 0,0 l/m 4,0 km/h (1 Bft) SE 0,00 h 0,051 mm 49 W/m 7,1 C 10,6 C 7,3 km/h (2 Bft)
19/03/2008 17:00 10,0 C 80 % 1005,1 hPa 0,6 l/m 2,6 km/h (1 Bft) E-SE 0,00 h 0,025 mm 8 W/m 6,7 C 10,0 C 5,0 km/h (1 Bft)
19/03/2008 18:00 9,1 C 86 % 1005,8 hPa 3,8 l/m 4,2 km/h (1 Bft) O-NO 0,00 h 0,025 mm 0 W/m 6,9 C 8,7 C 5,4 km/h (1 Bft)
19/03/2008 19:00 8,4 C 91 % 1006,4 hPa 1,8 l/m 2,5 km/h (1 Bft) SO 0,00 h 0,000 mm 0 W/m 7,0 C 8,2 C 3,6 km/h (1 Bft)
19/03/2008 20:00 8,0 C 92 % 1006,7 hPa 0,0 l/m 0,0 km/h (0 Bft) N 0,00 h 0,000 mm 0 W/m 6,8 C 8,0 C 0,0 km/h (0 Bft)
19/03/2008 21:00 7,9 C 93 % 1007,0 hPa 0,0 l/m 0,1 km/h (0 Bft) S-SO 0,00 h 0,000 mm 0 W/m 6,8 C 7,9 C 0,2 km/h (0 Bft)
19/03/2008 22:00 8,0 C 93 % 1007,2 hPa 0,0 l/m 1,3 km/h (1 Bft) S-SO 0,00 h 0,000 mm 0 W/m 7,0 C 8,0 C 2,2 km/h (1 Bft)
19/03/2008 23:00 8,0 C 94 % 1007,1 hPa 0,0 l/m 3,1 km/h (1 Bft) N-NE 0,00 h 0,000 mm 0 W/m 7,0 C 7,8 C 4,9 km/h (1 Bft)
20/03/2008 00:00 7,5 C 94 % 1007,1 hPa 0,0 l/m 3,6 km/h (1 Bft) N-NE 0,00 h 0,000 mm 0 W/m 6,6 C 7,2 C 5,7 km/h (1 Bft)
20/03/2008 01:00 7,4 C 95 % 1006,9 hPa 0,0 l/m 2,3 km/h (1 Bft) N-NE 0,00 h 0,000 mm 0 W/m 6,6 C 7,2 C 4,2 km/h (1 Bft)
20/03/2008 02:00 6,9 C 94 % 1006,5 hPa 0,0 l/m 1,0 km/h (0 Bft) E 0,00 h 0,000 mm 0 W/m 6,1 C 6,9 C 1,9 km/h (1 Bft)
20/03/2008 03:00 6,9 C 94 % 1006,2 hPa 0,0 l/m 2,7 km/h (1 Bft) NE 0,00 h 0,000 mm 0 W/m 6,0 C 6,8 C 4,7 km/h (1 Bft)
20/03/2008 04:00 6,6 C 93 % 1006,4 hPa 0,0 l/m 5,4 km/h (1 Bft) O-NO 0,00 h 0,000 mm 0 W/m 5,5 C 5,8 C 7,3 km/h (2 Bft)
20/03/2008 05:00 6,5 C 93 % 1006,7 hPa 0,2 l/m 8,9 km/h (2 Bft) O 0,00 h 0,000 mm 0 W/m 5,3 C 4,7 C 11,9 km/h (2 Bft)
20/03/2008 06:00 6,0 C 88 % 1007,1 hPa 0,0 l/m 17,5 km/h (3 Bft) O-NO 0,00 h 0,025 mm 9 W/m 4,1 C 2,7 C 22,7 km/h (4 Bft)
20/03/2008 07:00 6,6 C 80 % 1007,4 hPa 0,0 l/m 8,6 km/h (2 Bft) O-NO 0,32 h 0,025 mm 78 W/m 3,4 C 5,0 C 11,6 km/h (2 Bft)
20/03/2008 08:00 8,6 C 75 % 1008,1 hPa 0,0 l/m 1,0 km/h (0 Bft) O-NO 0,90 h 0,051 mm 265 W/m 4,4 C 8,6 C 2,3 km/h (1 Bft)
20/03/2008 09:00 11,6 C 65 % 1008,7 hPa 0,0 l/m 4,2 km/h (1 Bft) E 0,85 h 0,127 mm 439 W/m 5,3 C 11,6 C 6,6 km/h (2 Bft)
20/03/2008 10:00 10,5 C 67 % 1009,6 hPa 0,0 l/m 4,3 km/h (1 Bft) S-SO 0,00 h 0,229 mm 137 W/m 4,7 C 10,5 C 7,0 km/h (2 Bft)
20/03/2008 11:00 11,2 C 61 % 1010,0 hPa 0,0 l/m 7,8 km/h (2 Bft) S 0,67 h 0,076 mm 541 W/m 3,8 C 11,2 C 11,2 km/h (2 Bft)
20/03/2008 12:00 12,4 C 56 % 1009,9 hPa 0,0 l/m 13,7 km/h (3 Bft) S-SE 1,00 h 0,305 mm 739 W/m 3,8 C 12,4 C 18,9 km/h (3 Bft)
20/03/2008 13:00 12,3 C 59 % 1009,8 hPa 0,0 l/m 17,8 km/h (3 Bft) S-SO 1,00 h 0,432 mm 712 W/m 4,5 C 12,3 C 23,5 km/h (4 Bft)
20/03/2008 14:00 12,8 C 55 % 1009,2 hPa 0,0 l/m 12,8 km/h (3 Bft) S 1,00 h 0,432 mm 602 W/m 4,0 C 12,8 C 18,1 km/h (3 Bft)
20/03/2008 15:00 12,6 C 54 % 1008,5 hPa 0,0 l/m 14,6 km/h (3 Bft) S-SE 0,88 h 0,356 mm 491 W/m 3,6 C 12,6 C 19,9 km/h (4 Bft)
20/03/2008 16:00 11,7 C 58 % 1008,2 hPa 0,0 l/m 17,3 km/h (3 Bft) S-SE 0,98 h 0,305 mm 341 W/m 3,7 C 11,7 C 23,5 km/h (4 Bft)
20/03/2008 17:00 10,7 C 63 % 1008,1 hPa 0,0 l/m 18,6 km/h (3 Bft) S 0,68 h 0,254 mm 133 W/m 3,9 C 10,7 C 24,4 km/h (4 Bft)
20/03/2008 18:00 9,3 C 69 % 1008,3 hPa 0,0 l/m 3,9 km/h (1 Bft) S-SO 0,07 h 0,152 mm 25 W/m 3,9 C 9,1 C 6,2 km/h (2 Bft)
20/03/2008 19:00 7,0 C 75 % 1008,4 hPa 0,0 l/m 3,2 km/h (1 Bft) N-NO 0,00 h 0,025 mm 0 W/m 2,8 C 6,9 C 5,1 km/h (1 Bft)
20/03/2008 20:00 6,7 C 80 % 1008,4 hPa 0,0 l/m 5,0 km/h (1 Bft) N 0,00 h 0,025 mm 0 W/m 3,6 C 6,0 C 8,3 km/h (2 Bft)
20/03/2008 21:00 6,7 C 82 % 1008,2 hPa 0,0 l/m 4,5 km/h (1 Bft) N 0,00 h 0,025 mm 0 W/m 3,9 C 6,2 C 7,9 km/h (2 Bft)
20/03/2008 22:00 6,3 C 82 % 1007,5 hPa 0,0 l/m 3,9 km/h (1 Bft) N 0,00 h 0,025 mm 0 W/m 3,4 C 5,9 C 6,6 km/h (2 Bft)
20/03/2008 23:00 6,4 C 80 % 1006,9 hPa 0,0 l/m 5,9 km/h (2 Bft) N-NO 0,00 h 0,025 mm 0 W/m 3,2 C 5,4 C 9,4 km/h (2 Bft)
21/03/2008 00:00 6,5 C 71 % 1006,1 hPa 0,0 l/m 4,7 km/h (1 Bft) N-NO 0,00 h 0,025 mm 0 W/m 1,7 C 5,9 C 7,1 km/h (2 Bft)
21/03/2008 01:00 5,9 C 63 % 1004,8 hPa 0,0 l/m 8,7 km/h (2 Bft) O 0,00 h 0,025 mm 0 W/m -0,6 C 4,1 C 11,8 km/h (2 Bft)
21/03/2008 02:00 5,5 C 62 % 1003,6 hPa 0,0 l/m 3,0 km/h (1 Bft) NO 0,00 h 0,051 mm 0 W/m -1,2 C 4,9 C 4,6 km/h (1 Bft)
21/03/2008 03:00 4,9 C 59 % 1002,2 hPa 0,0 l/m 3,7 km/h (1 Bft) O-NO 0,00 h 0,025 mm 0 W/m -2,5 C 4,4 C 5,5 km/h (1 Bft)
21/03/2008 04:00 4,3 C 61 % 1001,0 hPa 0,0 l/m 2,0 km/h (1 Bft) O-NO 0,00 h 0,025 mm 0 W/m -2,5 C 4,1 C 3,4 km/h (1 Bft)
21/03/2008 05:00 4,3 C 62 % 999,9 hPa 0,0 l/m 2,9 km/h (1 Bft) N-NO 0,00 h 0,025 mm 0 W/m -2,3 C 3,9 C 3,9 km/h (1 Bft)
21/03/2008 06:00 4,4 C 60 % 999,1 hPa 0,0 l/m 4,5 km/h (1 Bft) SO 0,02 h 0,025 mm 14 W/m -2,6 C 3,6 C 6,1 km/h (2 Bft)
21/03/2008 07:00 4,5 C 60 % 998,2 hPa 0,0 l/m 2,0 km/h (1 Bft) NO 0,08 h 0,025 mm 73 W/m -2,6 C 4,4 C 3,4 km/h (1 Bft)
21/03/2008 08:00 6,9 C 56 % 997,7 hPa 0,0 l/m 0,7 km/h (0 Bft) NO 0,98 h 0,051 mm 254 W/m -1,3 C 6,8 C 1,7 km/h (1 Bft)
21/03/2008 09:00 9,2 C 49 % 996,7 hPa 0,0 l/m 1,8 km/h (1 Bft) N 0,48 h 0,127 mm 299 W/m -0,9 C 9,2 C 3,9 km/h (1 Bft)
21/03/2008 10:00 9,5 C 50 % 996,2 hPa 0,0 l/m 2,6 km/h (1 Bft) E 0,00 h 0,152 mm 257 W/m -0,5 C 9,4 C 4,9 km/h (1 Bft)
21/03/2008 11:00 11,3 C 46 % 995,0 hPa 0,0 l/m 3,9 km/h (1 Bft) N 0,53 h 0,127 mm 397 W/m 0,1 C 11,3 C 6,7 km/h (2 Bft)
21/03/2008 12:00 12,5 C 45 % 993,7 hPa 0,0 l/m 8,6 km/h (2 Bft) E-NE 0,63 h 0,229 mm 559 W/m 1,0 C 12,5 C 12,6 km/h (3 Bft)
21/03/2008 13:00 13,3 C 46 % 992,2 hPa 0,0 l/m 9,2 km/h (2 Bft) E-NE 1,00 h 0,330 mm 672 W/m 1,8 C 13,3 C 13,9 km/h (3 Bft)
21/03/2008 14:00 14,0 C 46 % 990,7 hPa 0,0 l/m 23,3 km/h (4 Bft) SO 0,67 h 0,406 mm 475 W/m 2,6 C 14,0 C 33,2 km/h (5 Bft)
21/03/2008 15:00 12,2 C 49 % 990,1 hPa 0,0 l/m 32,2 km/h (5 Bft) SO 0,00 h 0,406 mm 148 W/m 1,8 C 12,2 C 43,4 km/h (6 Bft)
21/03/2008 16:00 11,3 C 55 % 989,7 hPa 0,0 l/m 25,1 km/h (4 Bft) S-SO 0,00 h 0,254 mm 150 W/m 2,5 C 11,3 C 33,3 km/h (5 Bft)
21/03/2008 17:00 10,5 C 60 % 989,7 hPa 0,0 l/m 19,3 km/h (3 Bft) SO 0,00 h 0,203 mm 97 W/m 3,0 C 10,3 C 26,8 km/h (4 Bft)
21/03/2008 18:00 9,3 C 66 % 989,5 hPa 0,0 l/m 22,1 km/h (4 Bft) S-SO 0,00 h 0,127 mm 24 W/m 3,3 C 6,4 C 28,8 km/h (5 Bft)
21/03/2008 19:00 8,7 C 72 % 989,1 hPa 0,0 l/m 14,5 km/h (3 Bft) S 0,00 h 0,102 mm 0 W/m 4,0 C 6,4 C 20,4 km/h (4 Bft)
21/03/2008 20:00 8,8 C 79 % 988,1 hPa 0,0 l/m 13,8 km/h (3 Bft) SO 0,00 h 0,051 mm 0 W/m 5,4 C 6,7 C 21,0 km/h (4 Bft)
21/03/2008 21:00 9,0 C 82 % 987,4 hPa 0,0 l/m 20,4 km/h (4 Bft) SO 0,00 h 0,051 mm 0 W/m 6,0 C 6,1 C 28,4 km/h (4 Bft)
21/03/2008 22:00 8,6 C 82 % 986,8 hPa 0,0 l/m 22,4 km/h (4 Bft) SO 0,00 h 0,051 mm 0 W/m 5,7 C 5,5 C 28,6 km/h (4 Bft)
21/03/2008 23:00 8,3 C 78 % 986,0 hPa 0,0 l/m 22,7 km/h (4 Bft) SO 0,00 h 0,051 mm 0 W/m 4,8 C 5,0 C 29,9 km/h (5 Bft)
22/03/2008 00:00 8,2 C 74 % 985,9 hPa 0,0 l/m 26,0 km/h (4 Bft) O-SO 0,00 h 0,051 mm 0 W/m 3,8 C 4,5 C 35,2 km/h (5 Bft)
22/03/2008 01:00 7,4 C 74 % 985,7 hPa 0,0 l/m 25,9 km/h (4 Bft) SO 0,00 h 0,076 mm 0 W/m 3,1 C 3,5 C 33,4 km/h (5 Bft)
22/03/2008 02:00 6,8 C 74 % 985,6 hPa 0,0 l/m 32,5 km/h (5 Bft) SO 0,00 h 0,076 mm 0 W/m 2,4 C 2,2 C 41,4 km/h (6 Bft)
22/03/2008 03:00 6,6 C 67 % 984,7 hPa 0,0 l/m 35,9 km/h (5 Bft) O-SO 0,00 h 0,076 mm 0 W/m 0,9 C 1,7 C 45,8 km/h (6 Bft)
22/03/2008 04:00 6,3 C 64 % 984,6 hPa 0,0 l/m 27,7 km/h (4 Bft) SO 0,00 h 0,102 mm 0 W/m -0,1 C 1,9 C 36,6 km/h (5 Bft)
22/03/2008 05:00 6,2 C 57 % 984,6 hPa 0,0 l/m 21,0 km/h (4 Bft) SO 0,00 h 0,102 mm 0 W/m -1,7 C 2,5 C 27,7 km/h (4 Bft)
22/03/2008 06:00 6,2 C 47 % 984,1 hPa 0,0 l/m 18,3 km/h (3 Bft) O-SO 0,00 h 0,102 mm 12 W/m -4,3 C 2,9 C 26,5 km/h (4 Bft)
22/03/2008 07:00 7,7 C 37 % 984,5 hPa 0,0 l/m 15,8 km/h (3 Bft) O 0,27 h 0,102 mm 75 W/m -6,1 C 5,0 C 22,7 km/h (4 Bft)
22/03/2008 08:00 9,4 C 34 % 984,9 hPa 0,0 l/m 8,9 km/h (2 Bft) O-SO 0,75 h 0,127 mm 255 W/m -5,8 C 8,3 C 13,1 km/h (3 Bft)
22/03/2008 09:00 10,0 C 31 % 985,3 hPa 0,0 l/m 2,7 km/h (1 Bft) SO 0,33 h 0,178 mm 278 W/m -6,3 C 9,9 C 4,8 km/h (1 Bft)
22/03/2008 10:00 12,8 C 29 % 985,7 hPa 0,0 l/m 5,8 km/h (2 Bft) E 1,00 h 0,152 mm 642 W/m -5,0 C 12,8 C 9,5 km/h (2 Bft)
22/03/2008 11:00 13,8 C 28 % 985,7 hPa 0,0 l/m 4,7 km/h (1 Bft) NE 1,00 h 0,381 mm 739 W/m -4,6 C 13,8 C 8,6 km/h (2 Bft)
22/03/2008 12:00 14,6 C 29 % 985,3 hPa 0,0 l/m 7,5 km/h (2 Bft) E 1,00 h 0,432 mm 680 W/m -3,1 C 14,6 C 12,0 km/h (2 Bft)
22/03/2008 13:00 15,1 C 29 % 984,8 hPa 0,0 l/m 12,1 km/h (2 Bft) E 1,00 h 0,432 mm 690 W/m -3,0 C 15,1 C 19,1 km/h (3 Bft)
22/03/2008 14:00 15,5 C 26 % 984,1 hPa 0,0 l/m 11,9 km/h (2 Bft) E-NE 1,00 h 0,483 mm 695 W/m -3,8 C 15,5 C 18,2 km/h (3 Bft)
22/03/2008 15:00 15,0 C 30 % 984,6 hPa 0,0 l/m 12,6 km/h (3 Bft) NE 1,00 h 0,483 mm 552 W/m -2,6 C 15,0 C 18,2 km/h (3 Bft)
22/03/2008 16:00 14,9 C 30 % 984,9 hPa 0,0 l/m 8,0 km/h (2 Bft) E-NE 1,00 h 0,406 mm 368 W/m -2,3 C 14,9 C 11,2 km/h (2 Bft)
22/03/2008 17:00 13,5 C 34 % 985,5 hPa 0,0 l/m 2,9 km/h (1 Bft) E-NE 1,00 h 0,254 mm 191 W/m -2,0 C 13,5 C 6,1 km/h (2 Bft)
22/03/2008 18:00 11,7 C 28 % 986,3 hPa 0,0 l/m 8,3 km/h (2 Bft) O 0,23 h 0,127 mm 30 W/m -6,2 C 11,7 C 13,3 km/h (3 Bft)
22/03/2008 19:00 10,5 C 31 % 987,4 hPa 0,0 l/m 13,3 km/h (3 Bft) O-NO 0,00 h 0,076 mm 0 W/m -6,0 C 10,5 C 19,9 km/h (4 Bft)
22/03/2008 20:00 9,7 C 33 % 988,4 hPa 0,0 l/m 5,1 km/h (1 Bft) O-NO 0,00 h 0,102 mm 0 W/m -5,6 C 9,5 C 9,2 km/h (2 Bft)
22/03/2008 21:00 8,6 C 39 % 988,8 hPa 0,0 l/m 17,1 km/h (3 Bft) SO 0,00 h 0,076 mm 0 W/m -4,5 C 6,1 C 21,8 km/h (4 Bft)
22/03/2008 22:00 8,4 C 40 % 989,1 hPa 0,0 l/m 15,9 km/h (3 Bft) O-SO 0,00 h 0,127 mm 0 W/m -4,2 C 5,9 C 21,3 km/h (4 Bft)
22/03/2008 23:00 7,8 C 45 % 989,1 hPa 0,0 l/m 13,7 km/h (3 Bft) O-SO 0,00 h 0,102 mm 0 W/m -3,3 C 5,5 C 18,6 km/h (3 Bft)
23/03/2008 00:00 7,4 C 47 % 989,1 hPa 0,0 l/m 11,7 km/h (2 Bft) O-SO 0,00 h 0,102 mm 0 W/m -3,2 C 5,2 C 16,2 km/h (3 Bft)
23/03/2008 01:00 7,0 C 50 % 988,8 hPa 0,0 l/m 14,8 km/h (3 Bft) O-SO 0,00 h 0,076 mm 0 W/m -2,6 C 4,3 C 18,8 km/h (3 Bft)
23/03/2008 02:00 6,5 C 53 % 988,5 hPa 0,0 l/m 6,7 km/h (2 Bft) O 0,00 h 0,076 mm 0 W/m -2,5 C 5,3 C 10,0 km/h (2 Bft)
23/03/2008 03:00 6,1 C 53 % 988,1 hPa 0,0 l/m 2,3 km/h (1 Bft) NO 0,00 h 0,051 mm 0 W/m -2,9 C 5,9 C 4,1 km/h (1 Bft)
23/03/2008 04:00 6,1 C 51 % 987,5 hPa 0,0 l/m 3,0 km/h (1 Bft) E 0,00 h 0,025 mm 0 W/m -3,3 C 5,8 C 4,3 km/h (1 Bft)
23/03/2008 05:00 6,3 C 48 % 987,2 hPa 0,0 l/m 5,1 km/h (1 Bft) S-SE 0,00 h 0,051 mm 0 W/m -4,0 C 5,4 C 6,4 km/h (2 Bft)
23/03/2008 06:00 5,3 C 50 % 987,1 hPa 0,0 l/m 2,2 km/h (1 Bft) S-SE 0,00 h 0,051 mm 16 W/m -4,3 C 5,2 C 3,5 km/h (1 Bft)
23/03/2008 07:00 5,4 C 52 % 987,5 hPa 0,0 l/m 2,1 km/h (1 Bft) E 0,00 h 0,025 mm 76 W/m -3,7 C 5,2 C 3,1 km/h (1 Bft)
23/03/2008 08:00 7,4 C 48 % 987,9 hPa 0,0 l/m 3,5 km/h (1 Bft) N 0,85 h 0,051 mm 254 W/m -3,1 C 7,1 C 6,0 km/h (2 Bft)
23/03/2008 09:00 11,2 C 42 % 988,1 hPa 0,0 l/m 9,6 km/h (2 Bft) N-NE 0,97 h 0,127 mm 420 W/m -1,4 C 11,2 C 15,2 km/h (3 Bft)
23/03/2008 10:00 12,8 C 47 % 988,4 hPa 0,0 l/m 19,9 km/h (4 Bft) E-NE 1,00 h 0,279 mm 629 W/m 1,8 C 12,8 C 27,2 km/h (4 Bft)
23/03/2008 11:00 12,9 C 50 % 988,6 hPa 0,0 l/m 18,3 km/h (3 Bft) E-NE 1,00 h 0,432 mm 693 W/m 2,7 C 12,9 C 25,7 km/h (4 Bft)
23/03/2008 12:00 12,4 C 49 % 988,8 hPa 0,0 l/m 12,0 km/h (2 Bft) E 1,00 h 0,457 mm 704 W/m 2,1 C 12,4 C 19,6 km/h (3 Bft)
23/03/2008 13:00 12,6 C 49 % 988,5 hPa 0,0 l/m 9,8 km/h (2 Bft) E 1,00 h 0,406 mm 752 W/m 2,1 C 12,6 C 15,6 km/h (3 Bft)
23/03/2008 14:00 12,2 C 44 % 988,2 hPa 0,0 l/m 8,7 km/h (2 Bft) E 0,75 h 0,432 mm 534 W/m 0,3 C 12,2 C 12,8 km/h (3 Bft)
23/03/2008 15:00 12,3 C 43 % 988,1 hPa 0,0 l/m 8,3 km/h (2 Bft) E 0,87 h 0,330 mm 499 W/m 0,1 C 12,3 C 13,3 km/h (3 Bft)
23/03/2008 16:00 9,7 C 55 % 988,5 hPa 0,0 l/m 6,9 km/h (2 Bft) E 0,00 h 0,305 mm 62 W/m 1,2 C 9,1 C 10,3 km/h (2 Bft)
23/03/2008 17:00 8,9 C 58 % 989,3 hPa 0,0 l/m 2,9 km/h (1 Bft) NE 0,00 h 0,076 mm 33 W/m 1,2 C 8,7 C 5,2 km/h (1 Bft)
23/03/2008 18:00 7,6 C 64 % 990,0 hPa 0,0 l/m 9,5 km/h (2 Bft) N-NE 0,30 h 0,025 mm 28 W/m 1,3 C 6,1 C 16,4 km/h (3 Bft)
23/03/2008 19:00 5,8 C 72 % 990,5 hPa 0,0 l/m 11,2 km/h (2 Bft) N-NE 0,00 h 0,051 mm 0 W/m 1,0 C 3,4 C 18,6 km/h (3 Bft)
23/03/2008 20:00 5,7 C 71 % 990,9 hPa 0,0 l/m 8,0 km/h (2 Bft) N-NE 0,00 h 0,025 mm 0 W/m 0,8 C 4,1 C 12,6 km/h (3 Bft)
23/03/2008 21:00 5,5 C 70 % 991,1 hPa 0,0 l/m 6,3 km/h (2 Bft) O-SO 0,00 h 0,025 mm 0 W/m 0,5 C 4,2 C 8,3 km/h (2 Bft)
23/03/2008 22:00 5,1 C 73 % 991,1 hPa 0,0 l/m 10,2 km/h (2 Bft) O-SO 0,00 h 0,025 mm 0 W/m 0,6 C 3,0 C 13,2 km/h (3 Bft)
23/03/2008 23:00 3,9 C 74 % 991,1 hPa 0,0 l/m 3,0 km/h (1 Bft) SO 0,00 h 0,025 mm 0 W/m -0,4 C 3,4 C 4,2 km/h (1 Bft)
Min-Date _ 23/03/08 22/03/08 22/03/08 - 17/03/08 - - - - 22/03/08 22/03/08 17/03/08
_ Min-Heure 23:55 13:49 06:15 - 04:50 - - - - 08:35 04:33 04:50
Minimum _ 3,3 C 22 % 984,0 hPa - 0,0 km/h (0 Bft) - - - - -7,4 C 1,0 C 0,0 km/h (0 Bft)
Max-Date _ 17/03/08 18/03/08 20/03/08 19/03/08 21/03/08 - 20/03/08 22/03/08 23/03/08 17/03/08 17/03/08 21/03/08
_ Max-Heure 12:53 00:22 11:15 18:00 14:42 - 09:48 14:00 12:05 12:13 12:53 14:43
Maximum _ 16,8 C 95 % 1010,0 hPa 3,8 l/m 46,7 km/h
SO (6 Bft)
- 0,07 h 0,483 mm 858 W/m 10,8 C 16,8 C 64,4 km/h
SO (8 Bft)
Moyenne _ 10,0 C 67 % 998,3 hPa #7,0 l/m 8,2 km/h (2 Bft) E #48:42 h #21,654 mm 325 W/m 3,5 C 9,4 C 11,9 km/h (2 Bft)
Roquefort les pins